sensor_id;sensor_type;location;lat;lon;timestamp;noise_LAeq;noise_LA_min;noise_LA_max;noise_LA01;noise_LA95
72276;Laerm;61204;49.980;8.358;2023-08-20T00:02:32;45.93;42.09;59.29;;
72276;Laerm;61204;49.980;8.358;2023-08-20T00:04:59;47.54;42.38;59.22;;
72276;Laerm;61204;49.980;8.358;2023-08-20T00:07:26;45.93;41.98;58.95;;
72276;Laerm;61204;49.980;8.358;2023-08-20T00:09:51;45.71;41.65;49.23;;
72276;Laerm;61204;49.980;8.358;2023-08-20T00:12:17;45.85;42.45;49.06;;
72276;Laerm;61204;49.980;8.358;2023-08-20T00:15:00;47.06;41.52;57.51;;
72276;Laerm;61204;49.980;8.358;2023-08-20T00:17:35;44.84;40.79;48.15;;
72276;Laerm;61204;49.980;8.358;2023-08-20T00:20:02;46.43;42.01;49.90;;
72276;Laerm;61204;49.980;8.358;2023-08-20T00:22:34;49.36;41.97;62.84;;
72276;Laerm;61204;49.980;8.358;2023-08-20T00:25:01;45.49;40.68;50.03;;
72276;Laerm;61204;49.980;8.358;2023-08-20T00:27:28;44.17;40.43;47.87;;
72276;Laerm;61204;49.980;8.358;2023-08-20T00:29:53;44.92;41.32;57.82;;
72276;Laerm;61204;49.980;8.358;2023-08-20T00:32:19;45.75;42.35;49.44;;
72276;Laerm;61204;49.980;8.358;2023-08-20T00:34:44;45.11;41.30;56.04;;
72276;Laerm;61204;49.980;8.358;2023-08-20T00:37:10;50.15;40.83;67.38;;
72276;Laerm;61204;49.980;8.358;2023-08-20T00:39:35;45.12;41.53;48.82;;
72276;Laerm;61204;49.980;8.358;2023-08-20T00:42:01;45.79;42.35;48.86;;
72276;Laerm;61204;49.980;8.358;2023-08-20T00:44:27;45.21;40.71;49.11;;
72276;Laerm;61204;49.980;8.358;2023-08-20T00:46:53;44.77;41.56;48.00;;
72276;Laerm;61204;49.980;8.358;2023-08-20T00:49:19;45.87;42.79;49.00;;
72276;Laerm;61204;49.980;8.358;2023-08-20T00:51:48;45.57;41.98;51.63;;
72276;Laerm;61204;49.980;8.358;2023-08-20T00:54:15;46.98;41.96;56.37;;
72276;Laerm;61204;49.980;8.358;2023-08-20T00:56:40;45.30;41.23;52.27;;
72276;Laerm;61204;49.980;8.358;2023-08-20T00:59:06;46.54;41.81;55.39;;
72276;Laerm;61204;49.980;8.358;2023-08-20T01:01:32;44.47;41.18;55.90;;
72276;Laerm;61204;49.980;8.358;2023-08-20T01:03:58;44.17;40.22;48.09;;
72276;Laerm;61204;49.980;8.358;2023-08-20T01:06:55;45.18;40.39;49.23;;
72276;Laerm;61204;49.980;8.358;2023-08-20T01:10:02;47.39;40.91;62.41;;
72276;Laerm;61204;49.980;8.358;2023-08-20T01:12:31;43.80;40.25;49.02;;
72276;Laerm;61204;49.980;8.358;2023-08-20T01:14:57;48.79;40.06;63.11;;
72276;Laerm;61204;49.980;8.358;2023-08-20T01:17:22;46.72;40.97;57.97;;
72276;Laerm;61204;49.980;8.358;2023-08-20T01:19:48;48.29;41.23;57.87;;
72276;Laerm;61204;49.980;8.358;2023-08-20T01:23:08;47.61;40.52;60.45;;
72276;Laerm;61204;49.980;8.358;2023-08-20T01:26:15;44.62;40.68;48.81;;
72276;Laerm;61204;49.980;8.358;2023-08-20T01:28:46;43.66;40.57;50.55;;
72276;Laerm;61204;49.980;8.358;2023-08-20T01:31:14;44.90;41.19;48.41;;
72276;Laerm;61204;49.980;8.358;2023-08-20T01:33:40;44.86;40.11;48.50;;
72276;Laerm;61204;49.980;8.358;2023-08-20T01:36:10;46.44;40.62;78.58;;
72276;Laerm;61204;49.980;8.358;2023-08-20T01:38:37;45.82;39.12;55.48;;
72276;Laerm;61204;49.980;8.358;2023-08-20T01:41:08;45.08;40.89;52.98;;
72276;Laerm;61204;49.980;8.358;2023-08-20T01:43:33;45.45;41.63;56.55;;
72276;Laerm;61204;49.980;8.358;2023-08-20T01:45:59;47.54;40.71;59.43;;
72276;Laerm;61204;49.980;8.358;2023-08-20T01:48:27;44.99;41.03;50.95;;
72276;Laerm;61204;49.980;8.358;2023-08-20T01:50:55;46.33;42.93;68.08;;
72276;Laerm;61204;49.980;8.358;2023-08-20T01:53:21;45.79;40.56;57.40;;
72276;Laerm;61204;49.980;8.358;2023-08-20T01:55:47;47.78;40.78;58.99;;
72276;Laerm;61204;49.980;8.358;2023-08-20T01:58:14;46.38;41.60;51.77;;
72276;Laerm;61204;49.980;8.358;2023-08-20T02:00:40;44.86;38.91;49.62;;
72276;Laerm;61204;49.980;8.358;2023-08-20T02:03:06;45.85;40.78;52.83;;
72276;Laerm;61204;49.980;8.358;2023-08-20T02:05:34;44.22;38.40;47.85;;
72276;Laerm;61204;49.980;8.358;2023-08-20T02:08:00;45.39;40.87;51.21;;
72276;Laerm;61204;49.980;8.358;2023-08-20T02:10:25;43.78;39.91;49.18;;
72276;Laerm;61204;49.980;8.358;2023-08-20T02:12:53;44.99;40.04;51.52;;
72276;Laerm;61204;49.980;8.358;2023-08-20T02:15:21;46.09;41.66;54.79;;
72276;Laerm;61204;49.980;8.358;2023-08-20T02:17:46;45.06;40.06;51.95;;
72276;Laerm;61204;49.980;8.358;2023-08-20T02:20:12;45.26;40.53;51.51;;
72276;Laerm;61204;49.980;8.358;2023-08-20T02:22:38;45.05;40.31;53.08;;
72276;Laerm;61204;49.980;8.358;2023-08-20T02:25:04;44.98;40.72;50.78;;
72276;Laerm;61204;49.980;8.358;2023-08-20T02:27:32;46.57;41.82;56.22;;
72276;Laerm;61204;49.980;8.358;2023-08-20T02:30:00;45.79;41.77;57.53;;
72276;Laerm;61204;49.980;8.358;2023-08-20T02:32:25;44.00;40.83;50.81;;
72276;Laerm;61204;49.980;8.358;2023-08-20T02:34:51;44.71;40.31;51.07;;
72276;Laerm;61204;49.980;8.358;2023-08-20T02:37:17;43.48;39.55;48.80;;
72276;Laerm;61204;49.980;8.358;2023-08-20T02:39:43;44.73;39.16;53.01;;
72276;Laerm;61204;49.980;8.358;2023-08-20T02:42:08;42.86;37.80;50.12;;
72276;Laerm;61204;49.980;8.358;2023-08-20T02:44:34;42.65;39.35;47.62;;
72276;Laerm;61204;49.980;8.358;2023-08-20T02:46:59;43.52;39.23;47.92;;
72276;Laerm;61204;49.980;8.358;2023-08-20T02:49:25;42.63;37.69;47.11;;
72276;Laerm;61204;49.980;8.358;2023-08-20T02:51:53;44.53;41.31;53.63;;
72276;Laerm;61204;49.980;8.358;2023-08-20T02:54:18;46.62;40.48;59.67;;
72276;Laerm;61204;49.980;8.358;2023-08-20T02:56:44;43.46;39.68;50.52;;
72276;Laerm;61204;49.980;8.358;2023-08-20T02:59:11;43.26;38.87;50.91;;
72276;Laerm;61204;49.980;8.358;2023-08-20T03:01:37;42.88;38.94;46.50;;
72276;Laerm;61204;49.980;8.358;2023-08-20T03:04:05;42.92;38.93;48.11;;
72276;Laerm;61204;49.980;8.358;2023-08-20T03:06:31;44.15;39.77;51.59;;
72276;Laerm;61204;49.980;8.358;2023-08-20T03:08:56;47.80;39.19;61.31;;
72276;Laerm;61204;49.980;8.358;2023-08-20T03:11:22;45.38;39.88;58.54;;
72276;Laerm;61204;49.980;8.358;2023-08-20T03:13:47;44.53;40.48;63.48;;
72276;Laerm;61204;49.980;8.358;2023-08-20T03:16:13;43.80;40.07;53.74;;
72276;Laerm;61204;49.980;8.358;2023-08-20T03:18:38;43.79;37.90;51.06;;
72276;Laerm;61204;49.980;8.358;2023-08-20T03:21:04;43.85;38.50;48.61;;
72276;Laerm;61204;49.980;8.358;2023-08-20T03:23:29;44.76;39.58;52.25;;
72276;Laerm;61204;49.980;8.358;2023-08-20T03:25:58;44.83;40.77;50.38;;
72276;Laerm;61204;49.980;8.358;2023-08-20T03:28:24;43.76;38.78;52.16;;
72276;Laerm;61204;49.980;8.358;2023-08-20T03:30:50;42.79;37.62;54.40;;
72276;Laerm;61204;49.980;8.358;2023-08-20T03:33:15;42.22;37.43;48.30;;
72276;Laerm;61204;49.980;8.358;2023-08-20T03:35:42;42.94;37.65;51.11;;
72276;Laerm;61204;49.980;8.358;2023-08-20T03:38:08;44.27;38.75;54.21;;
72276;Laerm;61204;49.980;8.358;2023-08-20T03:40:34;45.17;40.44;51.23;;
72276;Laerm;61204;49.980;8.358;2023-08-20T03:42:59;45.20;41.48;55.80;;
72276;Laerm;61204;49.980;8.358;2023-08-20T03:45:26;44.06;39.90;51.83;;
72276;Laerm;61204;49.980;8.358;2023-08-20T03:47:51;43.92;39.94;51.24;;
72276;Laerm;61204;49.980;8.358;2023-08-20T03:50:17;44.07;38.92;48.83;;
72276;Laerm;61204;49.980;8.358;2023-08-20T03:52:43;43.40;39.58;47.47;;
72276;Laerm;61204;49.980;8.358;2023-08-20T03:55:08;43.38;39.33;47.87;;
72276;Laerm;61204;49.980;8.358;2023-08-20T03:57:36;44.38;40.76;49.09;;
72276;Laerm;61204;49.980;8.358;2023-08-20T04:00:02;43.44;39.38;49.10;;
72276;Laerm;61204;49.980;8.358;2023-08-20T04:02:31;50.82;39.72;61.02;;
72276;Laerm;61204;49.980;8.358;2023-08-20T04:04:58;43.76;40.19;48.92;;
72276;Laerm;61204;49.980;8.358;2023-08-20T04:07:23;43.50;39.51;49.34;;
72276;Laerm;61204;49.980;8.358;2023-08-20T04:09:49;44.39;40.42;49.60;;
72276;Laerm;61204;49.980;8.358;2023-08-20T04:12:14;44.79;40.99;57.42;;
72276;Laerm;61204;49.980;8.358;2023-08-20T04:14:40;43.66;39.73;54.37;;
72276;Laerm;61204;49.980;8.358;2023-08-20T04:17:05;44.59;39.57;56.46;;
72276;Laerm;61204;49.980;8.358;2023-08-20T04:19:31;44.89;39.56;53.25;;
72276;Laerm;61204;49.980;8.358;2023-08-20T04:21:56;46.91;40.40;63.77;;
72276;Laerm;61204;49.980;8.358;2023-08-20T04:24:22;45.65;39.99;57.26;;
72276;Laerm;61204;49.980;8.358;2023-08-20T04:26:48;45.93;40.26;52.29;;
72276;Laerm;61204;49.980;8.358;2023-08-20T04:29:13;45.21;40.08;56.61;;
72276;Laerm;61204;49.980;8.358;2023-08-20T04:31:39;47.23;40.85;61.86;;
72276;Laerm;61204;49.980;8.358;2023-08-20T04:34:04;46.99;40.84;63.98;;
72276;Laerm;61204;49.980;8.358;2023-08-20T04:36:30;49.16;42.02;64.51;;
72276;Laerm;61204;49.980;8.358;2023-08-20T04:38:55;48.51;40.77;66.78;;
72276;Laerm;61204;49.980;8.358;2023-08-20T04:41:21;50.42;41.22;79.70;;
72276;Laerm;61204;49.980;8.358;2023-08-20T04:43:46;46.40;42.88;58.32;;
72276;Laerm;61204;49.980;8.358;2023-08-20T04:46:14;47.50;41.65;56.47;;
72276;Laerm;61204;49.980;8.358;2023-08-20T04:48:40;46.20;41.82;56.48;;
72276;Laerm;61204;49.980;8.358;2023-08-20T04:51:06;48.02;42.77;55.77;;
72276;Laerm;61204;49.980;8.358;2023-08-20T04:53:32;45.34;41.17;56.03;;
72276;Laerm;61204;49.980;8.358;2023-08-20T04:55:58;46.02;41.37;60.77;;
72276;Laerm;61204;49.980;8.358;2023-08-20T04:58:24;45.85;41.24;54.55;;
72276;Laerm;61204;49.980;8.358;2023-08-20T05:00:50;47.70;42.09;55.66;;
72276;Laerm;61204;49.980;8.358;2023-08-20T05:03:15;47.32;40.47;59.10;;
72276;Laerm;61204;49.980;8.358;2023-08-20T05:05:48;45.28;40.61;55.77;;
72276;Laerm;61204;49.980;8.358;2023-08-20T05:08:14;43.61;38.57;52.49;;
72276;Laerm;61204;49.980;8.358;2023-08-20T05:10:41;44.02;40.32;52.70;;
72276;Laerm;61204;49.980;8.358;2023-08-20T05:13:10;45.67;40.61;67.71;;
72276;Laerm;61204;49.980;8.358;2023-08-20T05:15:36;45.32;40.04;53.34;;
72276;Laerm;61204;49.980;8.358;2023-08-20T05:18:02;48.51;40.58;59.79;;
72276;Laerm;61204;49.980;8.358;2023-08-20T05:20:27;47.85;38.75;59.45;;
72276;Laerm;61204;49.980;8.358;2023-08-20T05:22:53;44.09;38.33;54.26;;
72276;Laerm;61204;49.980;8.358;2023-08-20T05:25:18;47.72;41.49;56.97;;
72276;Laerm;61204;49.980;8.358;2023-08-20T05:27:44;47.02;39.97;60.16;;
72276;Laerm;61204;49.980;8.358;2023-08-20T05:30:11;50.17;41.02;59.60;;
72276;Laerm;61204;49.980;8.358;2023-08-20T05:32:36;50.27;39.05;62.74;;
72276;Laerm;61204;49.980;8.358;2023-08-20T05:35:02;46.46;39.64;57.91;;
72276;Laerm;61204;49.980;8.358;2023-08-20T05:37:29;44.94;37.96;56.67;;
72276;Laerm;61204;49.980;8.358;2023-08-20T05:39:55;46.16;37.78;55.43;;
72276;Laerm;61204;49.980;8.358;2023-08-20T05:42:23;41.30;37.53;51.22;;
72276;Laerm;61204;49.980;8.358;2023-08-20T05:44:48;46.80;38.27;57.45;;
72276;Laerm;61204;49.980;8.358;2023-08-20T05:47:14;42.24;37.47;52.86;;
72276;Laerm;61204;49.980;8.358;2023-08-20T05:49:39;44.44;37.80;59.30;;
72276;Laerm;61204;49.980;8.358;2023-08-20T05:52:05;45.39;37.56;57.25;;
72276;Laerm;61204;49.980;8.358;2023-08-20T05:54:31;41.92;38.27;58.21;;
72276;Laerm;61204;49.980;8.358;2023-08-20T05:56:58;41.29;37.26;46.77;;
72276;Laerm;61204;49.980;8.358;2023-08-20T05:59:24;40.96;36.95;51.05;;
72276;Laerm;61204;49.980;8.358;2023-08-20T06:01:50;40.82;36.24;58.07;;
72276;Laerm;61204;49.980;8.358;2023-08-20T06:04:17;43.28;35.63;58.83;;
72276;Laerm;61204;49.980;8.358;2023-08-20T06:06:43;43.10;37.91;60.03;;
72276;Laerm;61204;49.980;8.358;2023-08-20T06:09:14;50.27;37.78;61.60;;
72276;Laerm;61204;49.980;8.358;2023-08-20T06:11:39;41.12;36.39;66.77;;
72276;Laerm;61204;49.980;8.358;2023-08-20T06:14:05;43.96;36.64;54.21;;
72276;Laerm;61204;49.980;8.358;2023-08-20T06:16:30;41.61;35.96;48.37;;
72276;Laerm;61204;49.980;8.358;2023-08-20T06:18:58;46.23;36.80;60.07;;
72276;Laerm;61204;49.980;8.358;2023-08-20T06:21:23;42.35;35.74;61.73;;
72276;Laerm;61204;49.980;8.358;2023-08-20T06:23:49;41.16;35.18;51.43;;
72276;Laerm;61204;49.980;8.358;2023-08-20T06:26:15;39.97;35.21;69.16;;
72276;Laerm;61204;49.980;8.358;2023-08-20T06:28:40;40.41;35.84;51.71;;
72276;Laerm;61204;49.980;8.358;2023-08-20T06:31:08;40.07;35.61;52.18;;
72276;Laerm;61204;49.980;8.358;2023-08-20T06:33:34;48.10;35.65;61.61;;
72276;Laerm;61204;49.980;8.358;2023-08-20T06:35:59;41.17;37.33;60.81;;
72276;Laerm;61204;49.980;8.358;2023-08-20T06:38:25;39.93;36.11;52.27;;
72276;Laerm;61204;49.980;8.358;2023-08-20T06:40:50;47.24;37.12;59.06;;
72276;Laerm;61204;49.980;8.358;2023-08-20T06:43:16;41.80;37.57;57.28;;
72276;Laerm;61204;49.980;8.358;2023-08-20T06:45:41;42.04;35.52;71.51;;
72276;Laerm;61204;49.980;8.358;2023-08-20T06:48:09;40.28;37.03;60.34;;
72276;Laerm;61204;49.980;8.358;2023-08-20T06:50:35;40.05;36.21;54.29;;
72276;Laerm;61204;49.980;8.358;2023-08-20T06:53:00;40.88;37.56;48.38;;
72276;Laerm;61204;49.980;8.358;2023-08-20T06:55:26;55.85;37.88;67.33;;
72276;Laerm;61204;49.980;8.358;2023-08-20T06:57:51;57.11;39.22;70.34;;
72276;Laerm;61204;49.980;8.358;2023-08-20T07:00:17;56.26;37.50;70.62;;
72276;Laerm;61204;49.980;8.358;2023-08-20T07:02:44;53.57;38.31;64.16;;
72276;Laerm;61204;49.980;8.358;2023-08-20T07:05:10;54.32;42.11;65.51;;
72276;Laerm;61204;49.980;8.358;2023-08-20T07:07:38;56.93;39.04;67.28;;
72276;Laerm;61204;49.980;8.358;2023-08-20T07:10:05;54.06;39.60;65.33;;
72276;Laerm;61204;49.980;8.358;2023-08-20T07:12:31;55.31;39.92;66.16;;
72276;Laerm;61204;49.980;8.358;2023-08-20T07:14:56;53.30;39.12;64.60;;
72276;Laerm;61204;49.980;8.358;2023-08-20T07:17:22;56.32;39.55;67.66;;
72276;Laerm;61204;49.980;8.358;2023-08-20T07:19:48;52.09;39.27;62.91;;
72276;Laerm;61204;49.980;8.358;2023-08-20T07:22:13;53.23;37.43;68.22;;
72276;Laerm;61204;49.980;8.358;2023-08-20T07:24:42;59.37;38.41;73.40;;
72276;Laerm;61204;49.980;8.358;2023-08-20T07:27:07;59.51;39.79;72.52;;
72276;Laerm;61204;49.980;8.358;2023-08-20T07:29:38;59.27;39.06;69.90;;
72276;Laerm;61204;49.980;8.358;2023-08-20T07:32:03;56.21;37.69;67.29;;
72276;Laerm;61204;49.980;8.358;2023-08-20T07:34:30;52.79;38.51;63.61;;
72276;Laerm;61204;49.980;8.358;2023-08-20T07:37:00;45.39;36.77;62.28;;
72276;Laerm;61204;49.980;8.358;2023-08-20T07:39:27;48.35;36.88;59.74;;
72276;Laerm;61204;49.980;8.358;2023-08-20T07:41:52;49.09;37.51;63.28;;
72276;Laerm;61204;49.980;8.358;2023-08-20T07:44:18;54.30;38.79;66.74;;
72276;Laerm;61204;49.980;8.358;2023-08-20T07:46:43;46.97;36.70;61.61;;
72276;Laerm;61204;49.980;8.358;2023-08-20T07:49:09;44.78;36.14;55.98;;
72276;Laerm;61204;49.980;8.358;2023-08-20T07:51:34;58.92;36.96;70.33;;
72276;Laerm;61204;49.980;8.358;2023-08-20T07:54:00;55.22;39.80;67.65;;
72276;Laerm;61204;49.980;8.358;2023-08-20T07:56:26;52.91;37.44;67.16;;
72276;Laerm;61204;49.980;8.358;2023-08-20T07:58:52;54.70;37.70;70.17;;
72276;Laerm;61204;49.980;8.358;2023-08-20T08:01:17;60.63;38.57;71.88;;
72276;Laerm;61204;49.980;8.358;2023-08-20T08:03:43;53.00;40.62;65.46;;
72276;Laerm;61204;49.980;8.358;2023-08-20T08:06:11;56.27;37.95;71.29;;
72276;Laerm;61204;49.980;8.358;2023-08-20T08:08:43;41.59;37.90;55.97;;
72276;Laerm;61204;49.980;8.358;2023-08-20T08:11:10;53.91;37.85;67.97;;
72276;Laerm;61204;49.980;8.358;2023-08-20T08:13:35;58.27;39.20;71.11;;
72276;Laerm;61204;49.980;8.358;2023-08-20T08:16:01;61.26;40.70;72.69;;
72276;Laerm;61204;49.980;8.358;2023-08-20T08:18:26;46.70;39.09;54.60;;
72276;Laerm;61204;49.980;8.358;2023-08-20T08:20:52;43.69;37.88;68.55;;
72276;Laerm;61204;49.980;8.358;2023-08-20T08:23:18;47.45;39.16;60.64;;
72276;Laerm;61204;49.980;8.358;2023-08-20T08:25:46;48.55;40.58;59.03;;
72276;Laerm;61204;49.980;8.358;2023-08-20T08:28:12;59.34;41.01;72.30;;
72276;Laerm;61204;49.980;8.358;2023-08-20T08:30:38;48.78;39.47;60.67;;
72276;Laerm;61204;49.980;8.358;2023-08-20T08:33:05;55.14;39.62;68.58;;
72276;Laerm;61204;49.980;8.358;2023-08-20T08:35:30;52.34;39.18;63.70;;
72276;Laerm;61204;49.980;8.358;2023-08-20T08:37:56;58.84;39.21;72.33;;
72276;Laerm;61204;49.980;8.358;2023-08-20T08:40:29;52.07;38.52;67.67;;
72276;Laerm;61204;49.980;8.358;2023-08-20T08:42:55;47.46;38.77;62.00;;
72276;Laerm;61204;49.980;8.358;2023-08-20T08:45:22;44.87;38.93;55.31;;
72276;Laerm;61204;49.980;8.358;2023-08-20T08:47:49;45.15;37.68;55.73;;
72276;Laerm;61204;49.980;8.358;2023-08-20T08:50:17;55.67;41.11;68.06;;
72276;Laerm;61204;49.980;8.358;2023-08-20T08:52:46;53.06;38.07;67.95;;
72276;Laerm;61204;49.980;8.358;2023-08-20T08:55:12;58.26;39.88;74.50;;
72276;Laerm;61204;49.980;8.358;2023-08-20T08:57:38;57.29;38.93;69.32;;
72276;Laerm;61204;49.980;8.358;2023-08-20T09:00:05;44.92;37.70;56.78;;
72276;Laerm;61204;49.980;8.358;2023-08-20T09:02:31;45.85;39.03;56.51;;
72276;Laerm;61204;49.980;8.358;2023-08-20T09:04:57;60.30;38.51;73.48;;
72276;Laerm;61204;49.980;8.358;2023-08-20T09:07:23;60.99;39.68;74.93;;
72276;Laerm;61204;49.980;8.358;2023-08-20T09:09:58;59.63;40.93;74.06;;
72276;Laerm;61204;49.980;8.358;2023-08-20T09:12:27;52.38;39.13;64.96;;
72276;Laerm;61204;49.980;8.358;2023-08-20T09:14:53;52.03;38.57;66.50;;
72276;Laerm;61204;49.980;8.358;2023-08-20T09:17:26;57.97;40.02;72.26;;
72276;Laerm;61204;49.980;8.358;2023-08-20T09:19:56;53.60;38.50;70.75;;
72276;Laerm;61204;49.980;8.358;2023-08-20T09:22:22;57.17;40.14;68.49;;
72276;Laerm;61204;49.980;8.358;2023-08-20T09:24:56;54.88;41.19;66.94;;
72276;Laerm;61204;49.980;8.358;2023-08-20T09:27:23;47.49;41.54;57.91;;
72276;Laerm;61204;49.980;8.358;2023-08-20T09:29:56;54.24;41.50;68.54;;
72276;Laerm;61204;49.980;8.358;2023-08-20T09:32:27;51.77;40.30;68.32;;
72276;Laerm;61204;49.980;8.358;2023-08-20T09:34:58;56.41;41.16;69.42;;
72276;Laerm;61204;49.980;8.358;2023-08-20T09:37:24;52.85;40.24;67.10;;
72276;Laerm;61204;49.980;8.358;2023-08-20T09:39:51;57.31;40.81;69.28;;
72276;Laerm;61204;49.980;8.358;2023-08-20T09:42:17;61.21;42.63;74.11;;
72276;Laerm;61204;49.980;8.358;2023-08-20T09:44:45;56.86;40.76;69.77;;
72276;Laerm;61204;49.980;8.358;2023-08-20T09:47:14;54.81;41.19;67.53;;
72276;Laerm;61204;49.980;8.358;2023-08-20T09:49:48;54.94;39.50;68.84;;
72276;Laerm;61204;49.980;8.358;2023-08-20T09:52:39;46.70;37.82;61.79;;
72276;Laerm;61204;49.980;8.358;2023-08-20T09:55:16;55.09;41.10;68.57;;
72276;Laerm;61204;49.980;8.358;2023-08-20T09:57:42;57.02;40.13;71.91;;
72276;Laerm;61204;49.980;8.358;2023-08-20T10:00:13;58.06;40.24;73.31;;
72276;Laerm;61204;49.980;8.358;2023-08-20T10:02:40;49.23;40.35;63.59;;
72276;Laerm;61204;49.980;8.358;2023-08-20T10:05:08;54.59;41.53;67.81;;
72276;Laerm;61204;49.980;8.358;2023-08-20T10:07:36;54.19;41.87;68.28;;
72276;Laerm;61204;49.980;8.358;2023-08-20T10:10:08;54.46;40.06;69.60;;
72276;Laerm;61204;49.980;8.358;2023-08-20T10:12:38;57.44;40.74;70.61;;
72276;Laerm;61204;49.980;8.358;2023-08-20T10:15:09;54.20;41.01;67.79;;
72276;Laerm;61204;49.980;8.358;2023-08-20T10:17:38;55.46;39.54;68.90;;
72276;Laerm;61204;49.980;8.358;2023-08-20T10:20:06;49.08;40.09;58.28;;
72276;Laerm;61204;49.980;8.358;2023-08-20T10:22:44;44.35;39.06;56.82;;
72276;Laerm;61204;49.980;8.358;2023-08-20T10:25:24;45.12;39.41;68.35;;
72276;Laerm;61204;49.980;8.358;2023-08-20T10:27:51;46.34;39.43;56.73;;
72276;Laerm;61204;49.980;8.358;2023-08-20T10:30:19;42.39;37.26;57.86;;
72276;Laerm;61204;49.980;8.358;2023-08-20T10:32:52;56.13;41.20;69.64;;
72276;Laerm;61204;49.980;8.358;2023-08-20T10:35:26;51.18;39.23;64.18;;
72276;Laerm;61204;49.980;8.358;2023-08-20T10:38:14;54.15;40.44;67.47;;
72276;Laerm;61204;49.980;8.358;2023-08-20T10:40:58;54.00;39.09;69.99;;
72276;Laerm;61204;49.980;8.358;2023-08-20T10:43:38;57.28;40.89;69.54;;
72276;Laerm;61204;49.980;8.358;2023-08-20T10:46:21;56.22;40.29;70.09;;
72276;Laerm;61204;49.980;8.358;2023-08-20T10:51:47;53.97;39.81;68.67;;
72276;Laerm;61204;49.980;8.358;2023-08-20T10:54:14;47.47;40.11;56.57;;
72276;Laerm;61204;49.980;8.358;2023-08-20T10:56:57;49.87;38.31;65.47;;
72276;Laerm;61204;49.980;8.358;2023-08-20T10:59:29;60.05;39.77;73.06;;
72276;Laerm;61204;49.980;8.358;2023-08-20T11:01:58;57.78;39.45;70.80;;
72276;Laerm;61204;49.980;8.358;2023-08-20T11:04:32;47.13;38.48;58.17;;
72276;Laerm;61204;49.980;8.358;2023-08-20T11:07:01;54.40;39.63;68.16;;
72276;Laerm;61204;49.980;8.358;2023-08-20T11:09:30;54.32;39.22;68.24;;
72276;Laerm;61204;49.980;8.358;2023-08-20T11:11:57;58.85;39.77;72.89;;
72276;Laerm;61204;49.980;8.358;2023-08-20T11:14:24;46.78;39.58;63.10;;
72276;Laerm;61204;49.980;8.358;2023-08-20T11:16:50;45.56;38.29;62.08;;
72276;Laerm;61204;49.980;8.358;2023-08-20T11:19:23;58.51;37.30;73.25;;
72276;Laerm;61204;49.980;8.358;2023-08-20T11:21:50;55.09;38.34;67.58;;
72276;Laerm;61204;49.980;8.358;2023-08-20T11:24:16;45.97;36.78;59.33;;
72276;Laerm;61204;49.980;8.358;2023-08-20T11:26:47;55.44;38.37;70.74;;
72276;Laerm;61204;49.980;8.358;2023-08-20T11:29:15;56.89;38.24;72.25;;
72276;Laerm;61204;49.980;8.358;2023-08-20T11:31:45;54.56;40.30;68.08;;
72276;Laerm;61204;49.980;8.358;2023-08-20T11:34:12;52.97;39.35;66.16;;
72276;Laerm;61204;49.980;8.358;2023-08-20T11:36:39;56.24;39.25;73.25;;
72276;Laerm;61204;49.980;8.358;2023-08-20T11:39:09;53.02;39.92;68.03;;
72276;Laerm;61204;49.980;8.358;2023-08-20T11:41:40;60.16;43.07;73.15;;
72276;Laerm;61204;49.980;8.358;2023-08-20T11:44:09;57.38;41.66;74.08;;
72276;Laerm;61204;49.980;8.358;2023-08-20T11:46:43;53.17;41.65;67.27;;
72276;Laerm;61204;49.980;8.358;2023-08-20T11:49:12;49.80;41.52;70.48;;
72276;Laerm;61204;49.980;8.358;2023-08-20T11:51:43;45.58;40.85;57.67;;
72276;Laerm;61204;49.980;8.358;2023-08-20T11:54:14;48.11;40.56;58.59;;
72276;Laerm;61204;49.980;8.358;2023-08-20T11:56:49;59.25;43.19;72.58;;
72276;Laerm;61204;49.980;8.358;2023-08-20T11:59:20;54.42;42.55;67.66;;
72276;Laerm;61204;49.980;8.358;2023-08-20T12:01:57;56.02;42.40;70.52;;
72276;Laerm;61204;49.980;8.358;2023-08-20T12:04:30;50.93;42.18;63.90;;
72276;Laerm;61204;49.980;8.358;2023-08-20T12:07:13;46.31;39.48;57.79;;
72276;Laerm;61204;49.980;8.358;2023-08-20T12:09:42;59.87;40.93;72.50;;
72276;Laerm;61204;49.980;8.358;2023-08-20T12:12:09;51.10;41.59;61.93;;
72276;Laerm;61204;49.980;8.358;2023-08-20T12:14:36;49.14;40.98;61.45;;
72276;Laerm;61204;49.980;8.358;2023-08-20T12:17:02;52.14;39.68;64.88;;
72276;Laerm;61204;49.980;8.358;2023-08-20T12:19:28;58.33;39.99;73.35;;
72276;Laerm;61204;49.980;8.358;2023-08-20T12:21:56;56.12;41.34;69.01;;
72276;Laerm;61204;49.980;8.358;2023-08-20T12:24:22;44.99;40.67;68.20;;
72276;Laerm;61204;49.980;8.358;2023-08-20T12:26:48;46.88;41.03;58.32;;
72276;Laerm;61204;49.980;8.358;2023-08-20T12:29:16;53.49;40.05;67.80;;
72276;Laerm;61204;49.980;8.358;2023-08-20T12:31:41;50.99;39.26;66.96;;
72276;Laerm;61204;49.980;8.358;2023-08-20T12:34:07;58.06;39.91;71.30;;
72276;Laerm;61204;49.980;8.358;2023-08-20T12:36:33;53.14;38.61;64.96;;
72276;Laerm;61204;49.980;8.358;2023-08-20T12:38:59;51.48;38.26;66.15;;
72276;Laerm;61204;49.980;8.358;2023-08-20T12:41:25;54.20;39.16;70.67;;
72276;Laerm;61204;49.980;8.358;2023-08-20T12:43:50;56.63;39.12;69.44;;
72276;Laerm;61204;49.980;8.358;2023-08-20T12:46:17;56.34;37.80;71.67;;
72276;Laerm;61204;49.980;8.358;2023-08-20T12:48:43;57.48;40.03;68.93;;
72276;Laerm;61204;49.980;8.358;2023-08-20T12:51:09;52.68;39.96;68.76;;
72276;Laerm;61204;49.980;8.358;2023-08-20T12:53:38;47.19;39.18;57.59;;
72276;Laerm;61204;49.980;8.358;2023-08-20T12:56:03;59.78;42.22;72.41;;
72276;Laerm;61204;49.980;8.358;2023-08-20T12:58:29;49.57;43.30;58.64;;
72276;Laerm;61204;49.980;8.358;2023-08-20T13:00:54;51.29;39.59;65.20;;
72276;Laerm;61204;49.980;8.358;2023-08-20T13:03:20;54.12;39.65;69.02;;
72276;Laerm;61204;49.980;8.358;2023-08-20T13:05:47;52.56;40.66;66.35;;
72276;Laerm;61204;49.980;8.358;2023-08-20T13:08:16;50.03;38.71;63.48;;
72276;Laerm;61204;49.980;8.358;2023-08-20T13:10:52;46.35;40.53;55.34;;
72276;Laerm;61204;49.980;8.358;2023-08-20T13:13:22;47.73;39.34;57.31;;
72276;Laerm;61204;49.980;8.358;2023-08-20T13:15:51;47.68;40.35;60.64;;
72276;Laerm;61204;49.980;8.358;2023-08-20T13:18:21;45.91;39.91;63.65;;
72276;Laerm;61204;49.980;8.358;2023-08-20T13:20:53;46.21;39.54;56.70;;
72276;Laerm;61204;49.980;8.358;2023-08-20T13:23:18;45.44;38.51;60.82;;
72276;Laerm;61204;49.980;8.358;2023-08-20T13:25:44;42.42;38.36;61.62;;
72276;Laerm;61204;49.980;8.358;2023-08-20T13:28:09;48.61;38.08;62.24;;
72276;Laerm;61204;49.980;8.358;2023-08-20T13:30:35;43.25;38.19;55.24;;
72276;Laerm;61204;49.980;8.358;2023-08-20T13:33:01;43.33;38.19;61.24;;
72276;Laerm;61204;49.980;8.358;2023-08-20T13:35:26;46.10;38.22;58.94;;
72276;Laerm;61204;49.980;8.358;2023-08-20T13:37:52;47.33;39.22;59.42;;
72276;Laerm;61204;49.980;8.358;2023-08-20T13:40:18;45.40;38.19;56.12;;
72276;Laerm;61204;49.980;8.358;2023-08-20T13:42:44;49.42;39.48;64.61;;
72276;Laerm;61204;49.980;8.358;2023-08-20T13:45:09;47.97;40.38;64.53;;
72276;Laerm;61204;49.980;8.358;2023-08-20T13:47:35;43.26;39.40;52.18;;
72276;Laerm;61204;49.980;8.358;2023-08-20T13:50:00;43.98;39.90;52.33;;
72276;Laerm;61204;49.980;8.358;2023-08-20T13:52:28;44.11;40.53;50.04;;